sensor_id;sensor_type;location;lat;lon;timestamp;P1;durP1;ratioP1;P2;durP2;ratioP2
58097;SDS011;43913;55.940;37.504;2023-03-20T00:00:31;24.77;;;14.07;;
58097;SDS011;43913;55.940;37.504;2023-03-20T00:02:59;30.10;;;16.67;;
58097;SDS011;43913;55.940;37.504;2023-03-20T00:05:26;36.63;;;19.27;;
58097;SDS011;43913;55.940;37.504;2023-03-20T00:07:53;37.08;;;18.00;;
58097;SDS011;43913;55.940;37.504;2023-03-20T00:10:19;34.58;;;19.52;;
58097;SDS011;43913;55.940;37.504;2023-03-20T00:12:47;28.00;;;17.23;;
58097;SDS011;43913;55.940;37.504;2023-03-20T00:15:19;37.40;;;17.88;;
58097;SDS011;43913;55.940;37.504;2023-03-20T00:17:47;40.95;;;21.42;;
58097;SDS011;43913;55.940;37.504;2023-03-20T00:20:13;37.08;;;19.88;;
58097;SDS011;43913;55.940;37.504;2023-03-20T00:22:39;37.50;;;20.52;;
58097;SDS011;43913;55.940;37.504;2023-03-20T00:25:05;39.65;;;20.58;;
58097;SDS011;43913;55.940;37.504;2023-03-20T00:27:31;36.33;;;21.30;;
58097;SDS011;43913;55.940;37.504;2023-03-20T00:29:57;36.63;;;20.17;;
58097;SDS011;43913;55.940;37.504;2023-03-20T00:32:23;33.97;;;19.08;;
58097;SDS011;43913;55.940;37.504;2023-03-20T00:34:48;37.88;;;20.35;;
58097;SDS011;43913;55.940;37.504;2023-03-20T00:37:14;38.25;;;20.95;;
58097;SDS011;43913;55.940;37.504;2023-03-20T00:39:40;42.97;;;22.13;;
58097;SDS011;43913;55.940;37.504;2023-03-20T00:42:06;36.55;;;21.60;;
58097;SDS011;43913;55.940;37.504;2023-03-20T00:44:38;37.42;;;21.42;;
58097;SDS011;43913;55.940;37.504;2023-03-20T00:47:27;41.03;;;20.60;;
58097;SDS011;43913;55.940;37.504;2023-03-20T00:49:54;36.00;;;20.48;;
58097;SDS011;43913;55.940;37.504;2023-03-20T00:52:20;34.72;;;20.13;;
58097;SDS011;43913;55.940;37.504;2023-03-20T00:54:49;34.50;;;19.05;;
58097;SDS011;43913;55.940;37.504;2023-03-20T00:59:55;34.33;;;18.83;;
58097;SDS011;43913;55.940;37.504;2023-03-20T01:02:25;35.28;;;19.67;;
58097;SDS011;43913;55.940;37.504;2023-03-20T01:04:53;34.17;;;19.58;;
58097;SDS011;43913;55.940;37.504;2023-03-20T01:07:19;27.08;;;15.82;;
58097;SDS011;43913;55.940;37.504;2023-03-20T01:09:45;23.52;;;15.20;;
58097;SDS011;43913;55.940;37.504;2023-03-20T01:12:11;23.73;;;13.32;;
58097;SDS011;43913;55.940;37.504;2023-03-20T01:14:39;21.40;;;13.10;;
58097;SDS011;43913;55.940;37.504;2023-03-20T01:17:08;21.10;;;11.25;;
58097;SDS011;43913;55.940;37.504;2023-03-20T01:19:42;15.48;;;10.10;;
58097;SDS011;43913;55.940;37.504;2023-03-20T01:22:08;18.00;;;9.05;;
58097;SDS011;43913;55.940;37.504;2023-03-20T01:24:33;12.10;;;8.02;;
58097;SDS011;43913;55.940;37.504;2023-03-20T01:26:59;19.60;;;11.27;;
58097;SDS011;43913;55.940;37.504;2023-03-20T01:29:28;13.68;;;8.60;;
58097;SDS011;43913;55.940;37.504;2023-03-20T01:31:55;11.82;;;7.43;;
58097;SDS011;43913;55.940;37.504;2023-03-20T01:34:23;13.00;;;7.90;;
58097;SDS011;43913;55.940;37.504;2023-03-20T01:36:49;15.15;;;7.70;;
58097;SDS011;43913;55.940;37.504;2023-03-20T01:39:18;11.70;;;7.32;;
58097;SDS011;43913;55.940;37.504;2023-03-20T01:41:46;14.65;;;7.55;;
58097;SDS011;43913;55.940;37.504;2023-03-20T01:44:18;11.95;;;7.00;;
58097;SDS011;43913;55.940;37.504;2023-03-20T01:46:53;11.48;;;7.43;;
58097;SDS011;43913;55.940;37.504;2023-03-20T01:51:47;10.70;;;5.95;;
58097;SDS011;43913;55.940;37.504;2023-03-20T01:54:16;10.20;;;5.93;;
58097;SDS011;43913;55.940;37.504;2023-03-20T01:57:04;7.40;;;5.03;;
58097;SDS011;43913;55.940;37.504;2023-03-20T02:00:04;9.40;;;5.72;;
58097;SDS011;43913;55.940;37.504;2023-03-20T02:02:40;10.35;;;6.35;;
58097;SDS011;43913;55.940;37.504;2023-03-20T02:05:09;8.80;;;6.15;;
58097;SDS011;43913;55.940;37.504;2023-03-20T02:07:36;10.85;;;5.97;;
58097;SDS011;43913;55.940;37.504;2023-03-20T02:10:06;10.05;;;6.30;;
58097;SDS011;43913;55.940;37.504;2023-03-20T02:12:42;6.13;;;4.93;;
58097;SDS011;43913;55.940;37.504;2023-03-20T02:15:11;8.77;;;5.90;;
58097;SDS011;43913;55.940;37.504;2023-03-20T02:18:01;10.23;;;5.10;;
58097;SDS011;43913;55.940;37.504;2023-03-20T02:32:51;9.75;;;5.82;;
58097;SDS011;43913;55.940;37.504;2023-03-20T02:44:36;12.70;;;5.63;;
58097;SDS011;43913;55.940;37.504;2023-03-20T02:47:10;9.20;;;6.45;;
58097;SDS011;43913;55.940;37.504;2023-03-20T02:52:20;8.02;;;5.43;;
58097;SDS011;43913;55.940;37.504;2023-03-20T03:00:26;8.73;;;4.82;;
58097;SDS011;43913;55.940;37.504;2023-03-20T03:02:57;7.88;;;5.18;;
58097;SDS011;43913;55.940;37.504;2023-03-20T03:05:47;8.18;;;5.03;;
58097;SDS011;43913;55.940;37.504;2023-03-20T03:08:16;9.60;;;5.93;;
58097;SDS011;43913;55.940;37.504;2023-03-20T03:10:50;12.80;;;5.78;;
58097;SDS011;43913;55.940;37.504;2023-03-20T03:13:19;12.45;;;4.82;;
58097;SDS011;43913;55.940;37.504;2023-03-20T03:15:47;8.27;;;4.70;;
58097;SDS011;43913;55.940;37.504;2023-03-20T03:18:20;10.05;;;5.03;;
58097;SDS011;43913;55.940;37.504;2023-03-20T03:20:49;17.65;;;6.10;;
58097;SDS011;43913;55.940;37.504;2023-03-20T03:26:02;9.23;;;4.70;;
58097;SDS011;43913;55.940;37.504;2023-03-20T03:28:39;9.93;;;4.93;;
58097;SDS011;43913;55.940;37.504;2023-03-20T03:31:14;8.20;;;5.30;;
58097;SDS011;43913;55.940;37.504;2023-03-20T03:33:44;7.82;;;5.15;;
58097;SDS011;43913;55.940;37.504;2023-03-20T03:38:44;12.13;;;5.75;;
58097;SDS011;43913;55.940;37.504;2023-03-20T03:41:28;13.20;;;4.88;;
58097;SDS011;43913;55.940;37.504;2023-03-20T03:46:57;7.70;;;4.45;;
58097;SDS011;43913;55.940;37.504;2023-03-20T03:49:31;11.43;;;5.55;;
58097;SDS011;43913;55.940;37.504;2023-03-20T03:52:04;7.88;;;5.22;;
58097;SDS011;43913;55.940;37.504;2023-03-20T03:57:44;6.88;;;5.43;;
58097;SDS011;43913;55.940;37.504;2023-03-20T04:00:16;10.43;;;6.50;;
58097;SDS011;43913;55.940;37.504;2023-03-20T04:02:44;17.55;;;5.80;;
58097;SDS011;43913;55.940;37.504;2023-03-20T04:05:11;15.15;;;7.13;;
58097;SDS011;43913;55.940;37.504;2023-03-20T04:07:38;9.45;;;5.45;;
58097;SDS011;43913;55.940;37.504;2023-03-20T04:10:04;8.68;;;4.88;;
58097;SDS011;43913;55.940;37.504;2023-03-20T04:12:34;15.52;;;6.82;;
58097;SDS011;43913;55.940;37.504;2023-03-20T04:15:08;11.45;;;6.05;;
58097;SDS011;43913;55.940;37.504;2023-03-20T04:17:35;10.20;;;4.93;;
58097;SDS011;43913;55.940;37.504;2023-03-20T04:20:02;6.80;;;5.05;;
58097;SDS011;43913;55.940;37.504;2023-03-20T04:22:28;8.43;;;5.38;;
58097;SDS011;43913;55.940;37.504;2023-03-20T04:24:57;8.40;;;5.18;;
58097;SDS011;43913;55.940;37.504;2023-03-20T04:27:26;6.47;;;5.03;;
58097;SDS011;43913;55.940;37.504;2023-03-20T04:29:51;7.88;;;5.18;;
58097;SDS011;43913;55.940;37.504;2023-03-20T04:32:35;9.40;;;5.63;;
58097;SDS011;43913;55.940;37.504;2023-03-20T04:35:11;8.60;;;5.90;;
58097;SDS011;43913;55.940;37.504;2023-03-20T04:37:46;8.97;;;6.27;;
58097;SDS011;43913;55.940;37.504;2023-03-20T04:40:12;11.73;;;5.22;;
58097;SDS011;43913;55.940;37.504;2023-03-20T04:42:40;7.05;;;4.95;;
58097;SDS011;43913;55.940;37.504;2023-03-20T04:45:06;9.23;;;5.43;;
58097;SDS011;43913;55.940;37.504;2023-03-20T04:47:35;7.32;;;4.75;;
58097;SDS011;43913;55.940;37.504;2023-03-20T04:50:01;10.00;;;5.85;;
58097;SDS011;43913;55.940;37.504;2023-03-20T04:52:29;12.13;;;5.15;;
58097;SDS011;43913;55.940;37.504;2023-03-20T04:54:54;6.78;;;4.88;;
58097;SDS011;43913;55.940;37.504;2023-03-20T04:57:20;8.23;;;5.10;;
58097;SDS011;43913;55.940;37.504;2023-03-20T04:59:46;7.18;;;4.63;;
58097;SDS011;43913;55.940;37.504;2023-03-20T05:02:12;7.50;;;5.13;;
58097;SDS011;43913;55.940;37.504;2023-03-20T05:04:40;10.05;;;5.43;;
58097;SDS011;43913;55.940;37.504;2023-03-20T05:07:07;7.18;;;5.65;;
58097;SDS011;43913;55.940;37.504;2023-03-20T05:09:41;10.00;;;5.00;;
58097;SDS011;43913;55.940;37.504;2023-03-20T05:12:08;10.02;;;4.85;;
58097;SDS011;43913;55.940;37.504;2023-03-20T05:14:56;10.70;;;5.32;;
58097;SDS011;43913;55.940;37.504;2023-03-20T05:17:54;9.98;;;5.45;;
58097;SDS011;43913;55.940;37.504;2023-03-20T05:20:43;7.82;;;4.65;;
58097;SDS011;43913;55.940;37.504;2023-03-20T05:26:13;10.82;;;4.88;;
58097;SDS011;43913;55.940;37.504;2023-03-20T05:29:00;9.50;;;5.10;;
58097;SDS011;43913;55.940;37.504;2023-03-20T05:32:01;9.30;;;5.13;;
58097;SDS011;43913;55.940;37.504;2023-03-20T05:34:36;8.63;;;5.38;;
58097;SDS011;43913;55.940;37.504;2023-03-20T05:37:22;8.98;;;4.82;;
58097;SDS011;43913;55.940;37.504;2023-03-20T05:40:00;7.15;;;4.78;;
58097;SDS011;43913;55.940;37.504;2023-03-20T05:42:48;9.98;;;4.32;;
58097;SDS011;43913;55.940;37.504;2023-03-20T05:45:41;15.57;;;5.03;;
58097;SDS011;43913;55.940;37.504;2023-03-20T05:48:23;16.80;;;4.50;;
58097;SDS011;43913;55.940;37.504;2023-03-20T05:51:24;8.05;;;4.55;;
58097;SDS011;43913;55.940;37.504;2023-03-20T05:54:04;7.13;;;4.60;;
58097;SDS011;43913;55.940;37.504;2023-03-20T05:56:48;5.93;;;4.07;;
58097;SDS011;43913;55.940;37.504;2023-03-20T05:59:24;6.50;;;4.20;;
58097;SDS011;43913;55.940;37.504;2023-03-20T06:02:22;7.93;;;4.38;;
58097;SDS011;43913;55.940;37.504;2023-03-20T06:04:56;8.25;;;4.65;;
58097;SDS011;43913;55.940;37.504;2023-03-20T06:07:26;10.10;;;4.50;;
58097;SDS011;43913;55.940;37.504;2023-03-20T06:09:58;12.90;;;5.57;;
58097;SDS011;43913;55.940;37.504;2023-03-20T06:12:28;11.80;;;5.97;;
58097;SDS011;43913;55.940;37.504;2023-03-20T06:14:54;10.50;;;4.95;;
58097;SDS011;43913;55.940;37.504;2023-03-20T06:17:21;9.13;;;5.00;;
58097;SDS011;43913;55.940;37.504;2023-03-20T06:19:51;12.90;;;5.22;;
58097;SDS011;43913;55.940;37.504;2023-03-20T06:22:17;8.70;;;4.95;;
58097;SDS011;43913;55.940;37.504;2023-03-20T06:24:43;21.92;;;7.63;;
58097;SDS011;43913;55.940;37.504;2023-03-20T06:27:10;10.15;;;5.18;;
58097;SDS011;43913;55.940;37.504;2023-03-20T06:29:36;13.50;;;5.57;;
58097;SDS011;43913;55.940;37.504;2023-03-20T06:32:11;12.40;;;5.55;;
58097;SDS011;43913;55.940;37.504;2023-03-20T06:34:39;10.95;;;5.43;;
58097;SDS011;43913;55.940;37.504;2023-03-20T06:37:06;10.85;;;6.55;;
58097;SDS011;43913;55.940;37.504;2023-03-20T06:39:31;9.80;;;5.55;;
58097;SDS011;43913;55.940;37.504;2023-03-20T06:41:57;9.27;;;5.38;;
58097;SDS011;43913;55.940;37.504;2023-03-20T06:44:24;8.73;;;5.28;;
58097;SDS011;43913;55.940;37.504;2023-03-20T06:47:13;10.73;;;5.78;;
58097;SDS011;43913;55.940;37.504;2023-03-20T06:49:40;13.52;;;5.60;;
58097;SDS011;43913;55.940;37.504;2023-03-20T06:52:06;13.00;;;4.60;;
58097;SDS011;43913;55.940;37.504;2023-03-20T06:54:35;10.23;;;5.07;;
58097;SDS011;43913;55.940;37.504;2023-03-20T06:57:01;14.93;;;5.22;;
58097;SDS011;43913;55.940;37.504;2023-03-20T06:59:26;8.27;;;4.53;;
58097;SDS011;43913;55.940;37.504;2023-03-20T07:01:56;13.82;;;5.10;;
58097;SDS011;43913;55.940;37.504;2023-03-20T07:04:23;6.63;;;4.43;;
58097;SDS011;43913;55.940;37.504;2023-03-20T07:06:53;8.43;;;4.45;;
58097;SDS011;43913;55.940;37.504;2023-03-20T07:09:18;5.55;;;4.57;;
58097;SDS011;43913;55.940;37.504;2023-03-20T07:11:46;4.72;;;4.22;;
58097;SDS011;43913;55.940;37.504;2023-03-20T07:14:12;10.13;;;4.50;;
58097;SDS011;43913;55.940;37.504;2023-03-20T07:16:47;7.32;;;4.20;;
58097;SDS011;43913;55.940;37.504;2023-03-20T07:19:13;7.60;;;5.00;;
58097;SDS011;43913;55.940;37.504;2023-03-20T07:21:41;6.80;;;4.50;;
58097;SDS011;43913;55.940;37.504;2023-03-20T07:24:08;10.95;;;4.72;;
58097;SDS011;43913;55.940;37.504;2023-03-20T07:26:34;9.05;;;4.80;;
58097;SDS011;43913;55.940;37.504;2023-03-20T07:29:00;10.35;;;4.60;;
58097;SDS011;43913;55.940;37.504;2023-03-20T07:31:27;15.50;;;5.18;;
58097;SDS011;43913;55.940;37.504;2023-03-20T07:34:19;10.30;;;5.18;;
58097;SDS011;43913;55.940;37.504;2023-03-20T07:36:44;14.77;;;6.20;;
58097;SDS011;43913;55.940;37.504;2023-03-20T07:39:15;15.43;;;5.28;;
58097;SDS011;43913;55.940;37.504;2023-03-20T07:41:49;13.18;;;5.03;;
58097;SDS011;43913;55.940;37.504;2023-03-20T07:44:24;15.15;;;6.13;;
58097;SDS011;43913;55.940;37.504;2023-03-20T07:46:51;10.73;;;6.40;;
58097;SDS011;43913;55.940;37.504;2023-03-20T07:49:17;9.02;;;4.80;;
58097;SDS011;43913;55.940;37.504;2023-03-20T07:51:44;5.57;;;4.38;;
58097;SDS011;43913;55.940;37.504;2023-03-20T07:54:11;11.82;;;4.70;;
58097;SDS011;43913;55.940;37.504;2023-03-20T07:56:37;7.55;;;4.68;;
58097;SDS011;43913;55.940;37.504;2023-03-20T07:59:02;5.00;;;4.32;;
58097;SDS011;43913;55.940;37.504;2023-03-20T08:01:28;12.77;;;5.13;;
58097;SDS011;43913;55.940;37.504;2023-03-20T08:03:54;11.45;;;5.13;;
58097;SDS011;43913;55.940;37.504;2023-03-20T08:06:20;7.00;;;4.38;;
58097;SDS011;43913;55.940;37.504;2023-03-20T08:08:46;13.23;;;5.15;;
58097;SDS011;43913;55.940;37.504;2023-03-20T08:11:14;8.80;;;4.80;;
58097;SDS011;43913;55.940;37.504;2023-03-20T08:13:40;9.52;;;5.03;;
58097;SDS011;43913;55.940;37.504;2023-03-20T08:16:06;13.23;;;5.15;;
58097;SDS011;43913;55.940;37.504;2023-03-20T08:18:32;9.00;;;5.20;;
58097;SDS011;43913;55.940;37.504;2023-03-20T08:20:57;8.63;;;5.63;;
58097;SDS011;43913;55.940;37.504;2023-03-20T08:23:23;9.48;;;4.68;;
58097;SDS011;43913;55.940;37.504;2023-03-20T08:25:49;9.63;;;4.97;;
58097;SDS011;43913;55.940;37.504;2023-03-20T08:28:18;13.52;;;6.15;;
58097;SDS011;43913;55.940;37.504;2023-03-20T08:30:45;13.75;;;5.22;;
58097;SDS011;43913;55.940;37.504;2023-03-20T08:33:11;12.00;;;5.10;;
58097;SDS011;43913;55.940;37.504;2023-03-20T08:35:37;13.07;;;4.85;;
58097;SDS011;43913;55.940;37.504;2023-03-20T08:38:03;8.25;;;4.28;;
58097;SDS011;43913;55.940;37.504;2023-03-20T08:40:29;10.63;;;4.53;;
58097;SDS011;43913;55.940;37.504;2023-03-20T08:42:55;7.57;;;3.88;;
58097;SDS011;43913;55.940;37.504;2023-03-20T08:45:21;10.20;;;4.13;;
58097;SDS011;43913;55.940;37.504;2023-03-20T08:47:50;10.48;;;3.92;;
58097;SDS011;43913;55.940;37.504;2023-03-20T08:50:15;11.13;;;4.88;;
58097;SDS011;43913;55.940;37.504;2023-03-20T08:52:41;9.10;;;3.90;;
58097;SDS011;43913;55.940;37.504;2023-03-20T08:55:09;8.32;;;4.45;;
58097;SDS011;43913;55.940;37.504;2023-03-20T08:57:35;10.60;;;4.43;;
58097;SDS011;43913;55.940;37.504;2023-03-20T09:00:02;10.32;;;4.35;;
58097;SDS011;43913;55.940;37.504;2023-03-20T09:02:29;5.95;;;4.28;;
58097;SDS011;43913;55.940;37.504;2023-03-20T09:04:55;5.20;;;4.63;;
58097;SDS011;43913;55.940;37.504;2023-03-20T09:07:20;9.80;;;4.50;;
58097;SDS011;43913;55.940;37.504;2023-03-20T09:09:46;13.82;;;4.45;;
58097;SDS011;43913;55.940;37.504;2023-03-20T09:12:12;7.45;;;4.32;;
58097;SDS011;43913;55.940;37.504;2023-03-20T09:14:38;6.00;;;4.28;;
58097;SDS011;43913;55.940;37.504;2023-03-20T09:17:04;11.00;;;4.20;;
58097;SDS011;43913;55.940;37.504;2023-03-20T09:19:30;10.02;;;4.80;;
58097;SDS011;43913;55.940;37.504;2023-03-20T09:21:56;6.60;;;4.93;;
58097;SDS011;43913;55.940;37.504;2023-03-20T09:24:24;17.10;;;5.07;;
58097;SDS011;43913;55.940;37.504;2023-03-20T09:26:50;7.28;;;5.32;;
58097;SDS011;43913;55.940;37.504;2023-03-20T09:29:16;13.13;;;5.80;;
58097;SDS011;43913;55.940;37.504;2023-03-20T09:31:42;8.30;;;5.45;;
58097;SDS011;43913;55.940;37.504;2023-03-20T09:34:08;10.88;;;6.07;;
58097;SDS011;43913;55.940;37.504;2023-03-20T09:36:35;9.82;;;5.40;;
58097;SDS011;43913;55.940;37.504;2023-03-20T09:39:00;9.02;;;5.80;;
58097;SDS011;43913;55.940;37.504;2023-03-20T09:41:26;14.40;;;6.30;;
58097;SDS011;43913;55.940;37.504;2023-03-20T09:46:45;17.33;;;6.43;;
58097;SDS011;43913;55.940;37.504;2023-03-20T09:49:47;14.05;;;5.95;;
58097;SDS011;43913;55.940;37.504;2023-03-20T09:52:34;9.90;;;5.65;;
58097;SDS011;43913;55.940;37.504;2023-03-20T09:55:05;8.93;;;5.78;;
58097;SDS011;43913;55.940;37.504;2023-03-20T09:57:38;9.80;;;5.72;;
58097;SDS011;43913;55.940;37.504;2023-03-20T10:00:12;10.93;;;6.63;;
58097;SDS011;43913;55.940;37.504;2023-03-20T10:02:49;11.20;;;5.90;;
58097;SDS011;43913;55.940;37.504;2023-03-20T10:05:21;9.02;;;4.85;;
58097;SDS011;43913;55.940;37.504;2023-03-20T10:07:59;9.50;;;4.65;;
58097;SDS011;43913;55.940;37.504;2023-03-20T10:15:46;6.15;;;4.38;;
58097;SDS011;43913;55.940;37.504;2023-03-20T10:18:34;4.72;;;4.13;;
58097;SDS011;43913;55.940;37.504;2023-03-20T10:21:08;7.80;;;4.00;;
58097;SDS011;43913;55.940;37.504;2023-03-20T10:23:42;13.50;;;4.38;;
58097;SDS011;43913;55.940;37.504;2023-03-20T10:26:16;8.05;;;3.60;;
58097;SDS011;43913;55.940;37.504;2023-03-20T10:28:57;6.22;;;3.83;;
58097;SDS011;43913;55.940;37.504;2023-03-20T10:42:48;4.80;;;3.45;;
58097;SDS011;43913;55.940;37.504;2023-03-20T10:48:11;6.07;;;2.70;;
58097;SDS011;43913;55.940;37.504;2023-03-20T10:50:47;9.07;;;4.07;;
58097;SDS011;43913;55.940;37.504;2023-03-20T10:53:24;5.78;;;4.05;;
58097;SDS011;43913;55.940;37.504;2023-03-20T10:55:53;6.25;;;3.75;;
58097;SDS011;43913;55.940;37.504;2023-03-20T10:58:21;5.43;;;4.03;;
58097;SDS011;43913;55.940;37.504;2023-03-20T11:00:48;6.60;;;3.30;;
58097;SDS011;43913;55.940;37.504;2023-03-20T11:03:16;5.78;;;3.35;;
58097;SDS011;43913;55.940;37.504;2023-03-20T11:05:46;5.53;;;3.60;;
58097;SDS011;43913;55.940;37.504;2023-03-20T11:08:14;4.72;;;3.70;;
58097;SDS011;43913;55.940;37.504;2023-03-20T11:10:41;8.82;;;4.28;;
58097;SDS011;43913;55.940;37.504;2023-03-20T11:13:29;7.40;;;4.10;;
58097;SDS011;43913;55.940;37.504;2023-03-20T11:15:55;6.03;;;4.63;;
58097;SDS011;43913;55.940;37.504;2023-03-20T11:18:25;6.03;;;3.63;;
58097;SDS011;43913;55.940;37.504;2023-03-20T11:20:52;6.85;;;4.22;;
58097;SDS011;43913;55.940;37.504;2023-03-20T11:23:23;3.85;;;3.45;;
58097;SDS011;43913;55.940;37.504;2023-03-20T11:25:51;8.73;;;3.50;;
58097;SDS011;43913;55.940;37.504;2023-03-20T11:33:50;5.57;;;3.47;;
58097;SDS011;43913;55.940;37.504;2023-03-20T11:36:39;8.98;;;3.65;;
58097;SDS011;43913;55.940;37.504;2023-03-20T11:39:21;4.38;;;3.95;;
58097;SDS011;43913;55.940;37.504;2023-03-20T11:41:52;4.15;;;3.40;;
58097;SDS011;43913;55.940;37.504;2023-03-20T11:44:40;7.25;;;3.80;;
58097;SDS011;43913;55.940;37.504;2023-03-20T11:47:13;5.40;;;3.53;;
58097;SDS011;43913;55.940;37.504;2023-03-20T11:52:31;6.32;;;3.97;;
58097;SDS011;43913;55.940;37.504;2023-03-20T11:55:01;5.25;;;3.35;;
58097;SDS011;43913;55.940;37.504;2023-03-20T11:59:59;6.30;;;3.47;;
58097;SDS011;43913;55.940;37.504;2023-03-20T12:02:28;6.72;;;3.60;;
58097;SDS011;43913;55.940;37.504;2023-03-20T12:04:54;6.35;;;3.65;;
58097;SDS011;43913;55.940;37.504;2023-03-20T12:07:26;5.82;;;3.65;;
58097;SDS011;43913;55.940;37.504;2023-03-20T12:23:26;7.85;;;4.80;;
58097;SDS011;43913;55.940;37.504;2023-03-20T12:29:09;8.23;;;3.80;;
58097;SDS011;43913;55.940;37.504;2023-03-20T12:31:54;9.43;;;4.30;;
58097;SDS011;43913;55.940;37.504;2023-03-20T12:34:24;6.03;;;4.07;;
58097;SDS011;43913;55.940;37.504;2023-03-20T12:36:57;8.57;;;3.90;;
58097;SDS011;43913;55.940;37.504;2023-03-20T12:39:33;8.18;;;4.22;;
58097;SDS011;43913;55.940;37.504;2023-03-20T12:53:13;6.47;;;4.43;;
58097;SDS011;43913;55.940;37.504;2023-03-20T12:58:53;3.90;;;3.60;;
58097;SDS011;43913;55.940;37.504;2023-03-20T13:01:35;7.38;;;3.78;;
58097;SDS011;43913;55.940;37.504;2023-03-20T13:04:15;6.55;;;3.65;;
58097;SDS011;43913;55.940;37.504;2023-03-20T13:07:02;6.30;;;4.30;;
58097;SDS011;43913;55.940;37.504;2023-03-20T13:12:25;7.00;;;3.90;;
58097;SDS011;43913;55.940;37.504;2023-03-20T13:15:11;11.85;;;3.88;;
58097;SDS011;43913;55.940;37.504;2023-03-20T13:17:47;5.82;;;3.47;;
58097;SDS011;43913;55.940;37.504;2023-03-20T13:20:18;6.63;;;4.15;;
58097;SDS011;43913;55.940;37.504;2023-03-20T13:22:53;7.25;;;3.78;;
58097;SDS011;43913;55.940;37.504;2023-03-20T20:55:07;11.55;;;5.68;;
58097;SDS011;43913;55.940;37.504;2023-03-20T20:57:34;9.70;;;5.68;;
58097;SDS011;43913;55.940;37.504;2023-03-20T21:00:00;16.88;;;6.03;;
58097;SDS011;43913;55.940;37.504;2023-03-20T21:02:29;9.45;;;6.03;;
58097;SDS011;43913;55.940;37.504;2023-03-20T21:04:56;10.15;;;5.63;;
58097;SDS011;43913;55.940;37.504;2023-03-20T21:07:22;8.25;;;5.13;;
58097;SDS011;43913;55.940;37.504;2023-03-20T21:09:49;12.43;;;5.82;;
58097;SDS011;43913;55.940;37.504;2023-03-20T21:12:15;8.32;;;5.15;;
58097;SDS011;43913;55.940;37.504;2023-03-20T21:14:41;11.55;;;4.85;;
58097;SDS011;43913;55.940;37.504;2023-03-20T21:17:08;9.38;;;4.90;;
58097;SDS011;43913;55.940;37.504;2023-03-20T21:19:35;10.05;;;5.32;;
58097;SDS011;43913;55.940;37.504;2023-03-20T21:22:06;11.93;;;5.15;;
58097;SDS011;43913;55.940;37.504;2023-03-20T21:24:33;9.98;;;5.00;;
58097;SDS011;43913;55.940;37.504;2023-03-20T21:26:59;8.75;;;5.30;;
58097;SDS011;43913;55.940;37.504;2023-03-20T21:29:29;11.52;;;5.00;;
58097;SDS011;43913;55.940;37.504;2023-03-20T21:31:55;5.82;;;4.90;;
58097;SDS011;43913;55.940;37.504;2023-03-20T21:34:20;11.80;;;6.03;;
58097;SDS011;43913;55.940;37.504;2023-03-20T21:36:46;10.13;;;5.07;;
58097;SDS011;43913;55.940;37.504;2023-03-20T21:39:12;9.02;;;5.40;;
58097;SDS011;43913;55.940;37.504;2023-03-20T21:41:38;12.85;;;4.68;;
58097;SDS011;43913;55.940;37.504;2023-03-20T21:44:05;10.80;;;5.07;;
58097;SDS011;43913;55.940;37.504;2023-03-20T21:46:31;9.73;;;4.50;;
58097;SDS011;43913;55.940;37.504;2023-03-20T21:48:58;10.82;;;5.32;;
58097;SDS011;43913;55.940;37.504;2023-03-20T21:51:24;8.52;;;4.50;;
58097;SDS011;43913;55.940;37.504;2023-03-20T21:53:49;7.63;;;4.70;;
58097;SDS011;43913;55.940;37.504;2023-03-20T21:56:15;11.48;;;5.65;;
58097;SDS011;43913;55.940;37.504;2023-03-20T21:58:43;6.72;;;4.65;;
58097;SDS011;43913;55.940;37.504;2023-03-20T22:01:09;9.20;;;4.82;;
58097;SDS011;43913;55.940;37.504;2023-03-20T22:03:36;7.60;;;4.20;;
58097;SDS011;43913;55.940;37.504;2023-03-20T22:06:05;8.07;;;4.53;;
58097;SDS011;43913;55.940;37.504;2023-03-20T22:08:33;8.18;;;5.25;;
58097;SDS011;43913;55.940;37.504;2023-03-20T22:10:58;14.07;;;4.93;;
58097;SDS011;43913;55.940;37.504;2023-03-20T22:13:24;6.75;;;4.97;;
58097;SDS011;43913;55.940;37.504;2023-03-20T22:15:50;7.82;;;4.70;;
58097;SDS011;43913;55.940;37.504;2023-03-20T22:18:16;9.80;;;4.78;;
58097;SDS011;43913;55.940;37.504;2023-03-20T22:20:42;9.52;;;4.63;;
58097;SDS011;43913;55.940;37.504;2023-03-20T22:23:08;7.18;;;4.30;;
58097;SDS011;43913;55.940;37.504;2023-03-20T22:25:34;9.80;;;4.80;;
58097;SDS011;43913;55.940;37.504;2023-03-20T22:28:00;9.75;;;5.30;;
58097;SDS011;43913;55.940;37.504;2023-03-20T22:30:26;7.97;;;5.03;;
58097;SDS011;43913;55.940;37.504;2023-03-20T22:32:55;10.52;;;4.65;;
58097;SDS011;43913;55.940;37.504;2023-03-20T22:35:21;8.80;;;5.45;;
58097;SDS011;43913;55.940;37.504;2023-03-20T22:37:47;6.38;;;5.03;;
58097;SDS011;43913;55.940;37.504;2023-03-20T22:40:13;8.23;;;4.85;;
58097;SDS011;43913;55.940;37.504;2023-03-20T22:42:39;9.57;;;5.10;;
58097;SDS011;43913;55.940;37.504;2023-03-20T22:45:05;7.53;;;5.32;;
58097;SDS011;43913;55.940;37.504;2023-03-20T22:47:33;7.22;;;5.47;;
58097;SDS011;43913;55.940;37.504;2023-03-20T22:49:59;12.02;;;5.55;;
58097;SDS011;43913;55.940;37.504;2023-03-20T22:52:25;8.38;;;5.90;;
58097;SDS011;43913;55.940;37.504;2023-03-20T22:54:50;8.77;;;4.75;;
58097;SDS011;43913;55.940;37.504;2023-03-20T22:57:16;8.68;;;4.70;;
58097;SDS011;43913;55.940;37.504;2023-03-20T22:59:42;8.75;;;4.85;;
58097;SDS011;43913;55.940;37.504;2023-03-20T23:02:07;9.10;;;5.00;;
58097;SDS011;43913;55.940;37.504;2023-03-20T23:04:33;7.20;;;4.93;;
58097;SDS011;43913;55.940;37.504;2023-03-20T23:06:59;9.02;;;4.82;;
58097;SDS011;43913;55.940;37.504;2023-03-20T23:09:26;6.32;;;5.07;;
58097;SDS011;43913;55.940;37.504;2023-03-20T23:11:52;6.05;;;4.53;;
58097;SDS011;43913;55.940;37.504;2023-03-20T23:14:18;6.60;;;4.75;;
58097;SDS011;43913;55.940;37.504;2023-03-20T23:16:43;8.27;;;5.70;;
58097;SDS011;43913;55.940;37.504;2023-03-20T23:19:09;6.90;;;4.75;;
58097;SDS011;43913;55.940;37.504;2023-03-20T23:21:35;5.15;;;4.32;;
58097;SDS011;43913;55.940;37.504;2023-03-20T23:24:01;11.05;;;5.80;;
58097;SDS011;43913;55.940;37.504;2023-03-20T23:26:27;10.38;;;4.70;;
58097;SDS011;43913;55.940;37.504;2023-03-20T23:28:53;5.97;;;4.32;;
58097;SDS011;43913;55.940;37.504;2023-03-20T23:31:20;11.27;;;5.10;;
58097;SDS011;43913;55.940;37.504;2023-03-20T23:33:51;6.82;;;4.55;;
58097;SDS011;43913;55.940;37.504;2023-03-20T23:36:19;9.63;;;5.43;;
58097;SDS011;43913;55.940;37.504;2023-03-20T23:38:45;6.35;;;4.20;;
58097;SDS011;43913;55.940;37.504;2023-03-20T23:41:11;6.22;;;4.68;;
58097;SDS011;43913;55.940;37.504;2023-03-20T23:43:37;7.80;;;5.00;;
58097;SDS011;43913;55.940;37.504;2023-03-20T23:46:06;12.18;;;5.20;;
58097;SDS011;43913;55.940;37.504;2023-03-20T23:48:33;9.80;;;5.78;;
58097;SDS011;43913;55.940;37.504;2023-03-20T23:51:00;11.27;;;5.00;;
58097;SDS011;43913;55.940;37.504;2023-03-20T23:53:27;8.27;;;5.25;;
58097;SDS011;43913;55.940;37.504;2023-03-20T23:55:53;6.75;;;5.18;;
58097;SDS011;43913;55.940;37.504;2023-03-20T23:58:20;8.00;;;5.57;;
